Time;durP1;ratioP1;P1;durP2;ratioP2;P2;SDS_P1;SDS_P2;PMS_P1;PMS_P2;Temp;Humidity;BMP_temperature;BMP_pressure;BME280_temperature;BME280_humidity;BME280_pressure;Samples;Min_cycle;Max_cycle;Signal;HPM_P1;HPM_P2
2023/08/12 00:01:33;;;;;;;12.18;7.15;;;;;;;;;;4970837;28;20216;-67
2023/08/12 00:03:58;;;;;;;10.45;6.45;;;;;;;;;;4969155;28;20198;-68
2023/08/12 00:06:24;;;;;;;12.68;6.53;;;;;;;;;;4971191;28;20736;-67
2023/08/12 00:08:49;;;;;;;12.45;6.90;;;;;;;;;;4952962;28;20326;-67
2023/08/12 00:11:14;;;;;;;11.43;6.05;;;;;;;;;;4953464;28;20979;-67
2023/08/12 00:13:39;;;;;;;9.50;6.10;;;;;;;;;;4969485;28;20654;-67
2023/08/12 00:16:05;;;;;;;14.20;6.35;;;;;;;;;;4970923;28;20215;-68
2023/08/12 00:18:36;;;;;;;10.05;6.22;;;;;;;;;;4971424;28;20197;-67
2023/08/12 00:21:03;;;;;;;8.80;5.22;;;;;;;;;;4969879;28;20624;-68
2023/08/12 00:23:29;;;;;;;8.68;6.05;;;;;;;;;;4970276;28;20238;-67
2023/08/12 00:25:57;;;;;;;11.40;6.45;;;;;;;;;;4971784;28;20199;-66
2023/08/12 00:28:22;;;;;;;17.58;6.63;;;;;;;;;;4950438;28;20696;-67
2023/08/12 00:30:48;;;;;;;7.50;5.15;;;;;;;;;;4970274;28;20307;-67
2023/08/12 00:33:14;;;;;;;14.23;5.70;;;;;;;;;;4953328;28;20194;-67
2023/08/12 00:35:39;;;;;;;11.85;5.97;;;;;;;;;;4971319;28;20540;-67
2023/08/12 00:38:04;;;;;;;12.50;6.03;;;;;;;;;;4967748;28;20753;-66
2023/08/12 00:40:30;;;;;;;11.10;5.40;;;;;;;;;;4969920;28;20550;-67
2023/08/12 00:42:55;;;;;;;10.98;5.28;;;;;;;;;;4971222;28;20189;-67
2023/08/12 00:45:20;;;;;;;12.50;6.13;;;;;;;;;;4953903;28;20188;-67
2023/08/12 00:47:45;;;;;;;12.40;6.10;;;;;;;;;;4967352;28;20187;-67
2023/08/12 00:50:12;;;;;;;11.77;5.97;;;;;;;;;;4968499;28;20321;-67
2023/08/12 00:52:37;;;;;;;8.85;5.68;;;;;;;;;;4970520;28;20267;-67
2023/08/12 00:55:02;;;;;;;11.98;6.55;;;;;;;;;;4966872;28;20250;-67
2023/08/12 00:57:28;;;;;;;12.75;5.38;;;;;;;;;;4968654;28;20207;-67
2023/08/12 00:59:55;;;;;;;10.15;5.63;;;;;;;;;;4970660;28;20267;-68
2023/08/12 01:02:20;;;;;;;10.35;5.88;;;;;;;;;;4953267;28;20184;-68
2023/08/12 01:04:45;;;;;;;15.90;5.70;;;;;;;;;;4970036;28;20200;-68
2023/08/12 01:07:11;;;;;;;10.25;5.88;;;;;;;;;;4969465;28;20258;-68
2023/08/12 01:09:36;;;;;;;9.95;5.78;;;;;;;;;;4969523;28;20690;-67
2023/08/12 01:12:03;;;;;;;9.60;5.30;;;;;;;;;;4969388;28;20207;-68
2023/08/12 01:14:37;;;;;;;9.95;7.18;;;;;;;;;;4968282;28;20184;-68
2023/08/12 01:17:05;;;;;;;12.30;6.32;;;;;;;;;;4970020;28;20184;-68
2023/08/12 01:19:37;;;;;;;13.43;6.22;;;;;;;;;;4969156;28;20184;-68
2023/08/12 01:22:03;;;;;;;9.32;5.82;;;;;;;;;;4968997;28;20601;-68
2023/08/12 01:24:38;;;;;;;11.77;5.97;;;;;;;;;;4970342;28;20197;-67
2023/08/12 01:27:04;;;;;;;11.77;5.60;;;;;;;;;;4968925;28;20191;-67
2023/08/12 01:29:30;;;;;;;12.40;6.55;;;;;;;;;;4953250;28;20194;-67
2023/08/12 01:31:58;;;;;;;10.60;6.78;;;;;;;;;;4970215;28;20283;-67
2023/08/12 01:34:32;;;;;;;9.07;6.00;;;;;;;;;;4969354;28;20496;-68
2023/08/12 01:36:58;;;;;;;9.65;7.00;;;;;;;;;;4966250;28;20291;-67
2023/08/12 01:39:26;;;;;;;10.85;6.68;;;;;;;;;;4952493;28;20678;-67
2023/08/12 01:41:52;;;;;;;17.73;7.93;;;;;;;;;;4952144;28;20334;-68
2023/08/12 01:44:17;;;;;;;13.80;8.05;;;;;;;;;;4968676;28;20632;-67
2023/08/12 01:46:46;;;;;;;13.18;8.05;;;;;;;;;;4967268;28;20185;-67
2023/08/12 01:49:11;;;;;;;13.35;8.38;;;;;;;;;;4968061;28;20203;-67
2023/08/12 01:51:36;;;;;;;14.27;8.07;;;;;;;;;;4970340;28;20218;-67
2023/08/12 01:54:01;;;;;;;12.68;7.57;;;;;;;;;;4967849;28;20187;-67
2023/08/12 01:56:27;;;;;;;14.02;7.72;;;;;;;;;;4962709;28;20202;-67
2023/08/12 01:58:53;;;;;;;11.55;7.88;;;;;;;;;;4968161;28;20290;-67
2023/08/12 02:01:18;;;;;;;14.65;8.88;;;;;;;;;;4968691;28;20737;-68
2023/08/12 02:03:43;;;;;;;18.58;9.13;;;;;;;;;;4967007;28;20243;-67
2023/08/12 02:06:08;;;;;;;15.55;9.93;;;;;;;;;;4965563;28;21510;-67
2023/08/12 02:08:34;;;;;;;18.30;9.85;;;;;;;;;;4951460;28;20607;-67
2023/08/12 02:10:59;;;;;;;15.55;8.85;;;;;;;;;;4969427;28;20207;-67
2023/08/12 02:13:24;;;;;;;13.70;8.88;;;;;;;;;;4969699;28;20194;-67
2023/08/12 02:15:49;;;;;;;19.85;11.23;;;;;;;;;;4948737;28;20188;-67
2023/08/12 02:18:15;;;;;;;20.20;11.90;;;;;;;;;;4951533;28;20461;-68
2023/08/12 02:20:40;;;;;;;17.55;10.82;;;;;;;;;;4969454;28;20239;-67
2023/08/12 02:23:05;;;;;;;18.77;10.60;;;;;;;;;;4967738;28;21534;-68
2023/08/12 02:25:31;;;;;;;19.98;11.02;;;;;;;;;;4968268;28;20192;-68
2023/08/12 02:27:56;;;;;;;19.52;10.43;;;;;;;;;;4968581;28;20316;-67
2023/08/12 02:30:21;;;;;;;17.45;10.05;;;;;;;;;;4967310;28;20212;-67
2023/08/12 02:32:47;;;;;;;16.40;10.10;;;;;;;;;;4967853;28;20225;-67
2023/08/12 02:35:12;;;;;;;18.30;9.90;;;;;;;;;;4967398;28;20185;-67
2023/08/12 02:37:37;;;;;;;17.73;9.30;;;;;;;;;;4962711;28;20191;-67
2023/08/12 02:40:04;;;;;;;17.17;10.13;;;;;;;;;;4965456;28;20275;-67
2023/08/12 02:42:31;;;;;;;16.52;10.35;;;;;;;;;;4993717;23;20272;-68
2023/08/12 02:44:56;;;;;;;14.90;9.88;;;;;;;;;;4987336;28;20851;-68
2023/08/12 02:47:21;;;;;;;13.82;9.55;;;;;;;;;;4987991;28;20266;-69
2023/08/12 02:49:47;;;;;;;19.42;11.45;;;;;;;;;;4987815;28;20214;-69
2023/08/12 02:52:12;;;;;;;16.77;10.30;;;;;;;;;;4988185;28;20250;-68
2023/08/12 02:54:38;;;;;;;16.92;9.85;;;;;;;;;;4987177;28;20194;-69
2023/08/12 02:57:03;;;;;;;11.65;9.13;;;;;;;;;;4987932;28;20669;-69
2023/08/12 02:59:29;;;;;;;14.35;8.45;;;;;;;;;;4987899;28;20179;-68
2023/08/12 03:01:55;;;;;;;18.35;10.43;;;;;;;;;;4986832;28;20813;-68
2023/08/12 03:04:20;;;;;;;20.45;10.25;;;;;;;;;;4985868;28;20195;-69
2023/08/12 03:06:45;;;;;;;16.92;10.57;;;;;;;;;;4987498;28;20183;-68
2023/08/12 03:09:11;;;;;;;14.75;10.27;;;;;;;;;;4988096;28;20201;-69
2023/08/12 03:11:36;;;;;;;16.83;9.98;;;;;;;;;;4985603;28;20229;-68
2023/08/12 03:14:01;;;;;;;18.10;10.73;;;;;;;;;;4987647;28;20191;-69
2023/08/12 03:16:26;;;;;;;17.02;10.57;;;;;;;;;;4986814;28;20188;-69
2023/08/12 03:18:52;;;;;;;14.70;10.25;;;;;;;;;;4988909;28;21080;-68
2023/08/12 03:21:17;;;;;;;19.70;10.00;;;;;;;;;;4986971;28;20211;-68
2023/08/12 03:23:42;;;;;;;14.43;10.40;;;;;;;;;;4986456;28;20187;-68
2023/08/12 03:26:07;;;;;;;19.92;11.05;;;;;;;;;;4987809;28;20219;-69
2023/08/12 03:28:33;;;;;;;15.88;9.43;;;;;;;;;;4988705;28;20334;-68
2023/08/12 03:30:58;;;;;;;16.33;9.80;;;;;;;;;;4987747;28;20262;-68
2023/08/12 03:33:23;;;;;;;16.92;9.70;;;;;;;;;;4985408;28;20190;-68
2023/08/12 03:35:48;;;;;;;16.33;10.30;;;;;;;;;;4988043;28;20716;-68
2023/08/12 03:38:14;;;;;;;20.17;10.23;;;;;;;;;;4982292;28;20619;-69
2023/08/12 03:40:39;;;;;;;15.68;10.55;;;;;;;;;;4985370;28;20231;-69
2023/08/12 03:43:05;;;;;;;17.50;9.85;;;;;;;;;;4987164;28;20257;-69
2023/08/12 03:45:30;;;;;;;18.25;10.32;;;;;;;;;;4986713;28;20274;-69
2023/08/12 03:47:55;;;;;;;15.82;10.18;;;;;;;;;;4988128;28;20876;-69
2023/08/12 03:50:20;;;;;;;21.15;10.13;;;;;;;;;;4988626;28;20183;-69
2023/08/12 03:52:46;;;;;;;14.57;10.18;;;;;;;;;;4985326;28;20218;-70
2023/08/12 03:55:11;;;;;;;16.25;10.65;;;;;;;;;;4986638;28;20183;-69
2023/08/12 03:57:36;;;;;;;23.20;10.98;;;;;;;;;;4983431;28;20495;-69
2023/08/12 04:00:02;;;;;;;17.92;10.13;;;;;;;;;;4987470;28;20195;-69
2023/08/12 04:02:27;;;;;;;19.40;10.55;;;;;;;;;;4987432;28;20214;-69
2023/08/12 04:04:53;;;;;;;16.05;10.18;;;;;;;;;;4985797;28;20195;-69
2023/08/12 04:07:18;;;;;;;15.60;10.60;;;;;;;;;;4987193;28;20203;-69
2023/08/12 04:09:43;;;;;;;21.35;10.40;;;;;;;;;;4984989;28;21506;-69
2023/08/12 04:12:08;;;;;;;13.80;9.30;;;;;;;;;;4986646;28;20223;-69
2023/08/12 04:14:34;;;;;;;17.77;10.82;;;;;;;;;;4985185;28;20279;-69
2023/08/12 04:16:59;;;;;;;13.48;9.02;;;;;;;;;;4989632;28;20661;-69
2023/08/12 04:19:24;;;;;;;16.40;9.60;;;;;;;;;;4991973;28;20187;-69
2023/08/12 04:21:49;;;;;;;14.00;10.20;;;;;;;;;;4989235;28;20219;-69
2023/08/12 04:24:15;;;;;;;16.92;9.20;;;;;;;;;;4989566;28;20187;-69
2023/08/12 04:26:40;;;;;;;15.50;9.27;;;;;;;;;;4984112;28;20199;-69
2023/08/12 04:29:05;;;;;;;17.25;9.73;;;;;;;;;;4986735;28;20222;-68
2023/08/12 04:31:30;;;;;;;17.65;9.65;;;;;;;;;;4991478;28;20211;-69
2023/08/12 04:33:56;;;;;;;14.90;9.82;;;;;;;;;;4990055;28;20218;-69
2023/08/12 04:36:21;;;;;;;16.17;10.07;;;;;;;;;;4986715;28;20241;-69
2023/08/12 04:38:46;;;;;;;15.48;9.95;;;;;;;;;;4989886;28;20190;-69
2023/08/12 04:41:11;;;;;;;14.35;9.50;;;;;;;;;;4989855;28;20223;-69
2023/08/12 04:43:37;;;;;;;16.60;10.25;;;;;;;;;;4987982;28;20669;-69
2023/08/12 04:46:02;;;;;;;15.68;9.93;;;;;;;;;;4990102;28;20190;-69
2023/08/12 04:48:27;;;;;;;14.95;10.00;;;;;;;;;;4990442;28;20246;-68
2023/08/12 04:50:52;;;;;;;13.70;9.88;;;;;;;;;;4990924;28;20226;-69
2023/08/12 04:53:17;;;;;;;13.48;9.82;;;;;;;;;;4991106;28;20176;-69
2023/08/12 04:55:43;;;;;;;15.25;10.35;;;;;;;;;;4990194;28;20248;-69
2023/08/12 04:58:08;;;;;;;13.02;9.40;;;;;;;;;;4986777;28;20188;-69
2023/08/12 05:00:33;;;;;;;18.73;10.23;;;;;;;;;;4989271;28;20203;-69
2023/08/12 05:02:58;;;;;;;17.45;9.20;;;;;;;;;;4989682;28;20188;-69
2023/08/12 05:05:25;;;;;;;16.13;11.00;;;;;;;;;;4987066;28;20184;-69
2023/08/12 05:07:50;;;;;;;15.73;9.20;;;;;;;;;;4987408;28;20190;-69
2023/08/12 05:10:16;;;;;;;19.33;10.30;;;;;;;;;;4990253;28;20183;-69
2023/08/12 05:12:42;;;;;;;14.50;10.40;;;;;;;;;;4989889;28;20214;-69
2023/08/12 05:15:07;;;;;;;18.27;11.50;;;;;;;;;;4985382;28;20366;-69
2023/08/12 05:17:33;;;;;;;16.20;10.95;;;;;;;;;;4989303;28;20568;-69
2023/08/12 05:19:58;;;;;;;14.80;10.40;;;;;;;;;;4989934;28;20276;-70
2023/08/12 05:22:23;;;;;;;16.23;10.25;;;;;;;;;;4988487;28;20246;-70
2023/08/12 05:24:48;;;;;;;15.82;10.23;;;;;;;;;;4989488;28;20767;-70
2023/08/12 05:27:13;;;;;;;16.25;9.15;;;;;;;;;;4989795;28;20682;-70
2023/08/12 05:29:39;;;;;;;15.82;9.85;;;;;;;;;;4987266;28;20975;-70
2023/08/12 05:32:04;;;;;;;13.73;9.68;;;;;;;;;;4991281;28;20298;-70
2023/08/12 05:34:29;;;;;;;13.63;9.73;;;;;;;;;;4992023;28;20523;-72
2023/08/12 05:36:54;;;;;;;13.63;9.68;;;;;;;;;;4988365;28;20187;-73
2023/08/12 05:39:20;;;;;;;19.00;10.43;;;;;;;;;;4993973;28;20195;-74
2023/08/12 05:41:46;;;;;;;17.38;9.18;;;;;;;;;;4993948;28;20314;-75
2023/08/12 05:44:11;;;;;;;16.08;9.27;;;;;;;;;;4994150;28;20195;-74
2023/08/12 05:46:36;;;;;;;15.50;9.70;;;;;;;;;;4993551;28;20580;-75
2023/08/12 05:49:02;;;;;;;13.70;9.10;;;;;;;;;;4994801;28;20207;-75
2023/08/12 05:51:27;;;;;;;13.90;8.40;;;;;;;;;;4996392;28;20290;-75
2023/08/12 05:53:52;;;;;;;10.57;7.15;;;;;;;;;;4994607;28;20192;-75
2023/08/12 05:56:17;;;;;;;10.30;7.05;;;;;;;;;;4988330;28;20222;-75
2023/08/12 05:58:43;;;;;;;9.80;6.80;;;;;;;;;;4988940;28;20317;-75
2023/08/12 06:01:08;;;;;;;9.70;6.50;;;;;;;;;;4985703;28;20298;-75
2023/08/12 06:03:33;;;;;;;12.30;8.75;;;;;;;;;;4987946;28;20313;-75
2023/08/12 06:05:58;;;;;;;16.50;9.70;;;;;;;;;;4987292;28;20195;-75
2023/08/12 06:08:24;;;;;;;14.88;8.98;;;;;;;;;;4988722;28;21096;-71
2023/08/12 06:10:49;;;;;;;11.63;8.02;;;;;;;;;;4988333;28;20613;-71
2023/08/12 06:13:14;;;;;;;13.48;7.68;;;;;;;;;;4988754;28;20178;-72
2023/08/12 06:15:39;;;;;;;10.88;6.45;;;;;;;;;;4987416;28;20682;-71
2023/08/12 06:18:05;;;;;;;7.90;5.47;;;;;;;;;;4987281;28;20210;-72
2023/08/12 06:20:30;;;;;;;5.90;4.90;;;;;;;;;;4983817;28;20276;-72
2023/08/12 06:22:55;;;;;;;5.10;4.55;;;;;;;;;;4989073;28;20187;-71
2023/08/12 06:25:21;;;;;;;7.25;4.90;;;;;;;;;;4987157;28;20193;-72
2023/08/12 06:27:46;;;;;;;8.32;5.30;;;;;;;;;;4988911;28;20617;-72
2023/08/12 06:30:12;;;;;;;8.38;5.45;;;;;;;;;;4987317;28;20191;-72
2023/08/12 06:32:37;;;;;;;7.03;5.07;;;;;;;;;;4986623;28;20185;-72
2023/08/12 06:35:03;;;;;;;8.68;5.10;;;;;;;;;;4988236;28;20884;-72
2023/08/12 06:37:28;;;;;;;8.85;5.22;;;;;;;;;;4986379;28;20176;-72
2023/08/12 06:39:53;;;;;;;8.00;4.65;;;;;;;;;;4986077;28;20221;-72
2023/08/12 06:42:18;;;;;;;7.20;4.95;;;;;;;;;;4988101;28;21101;-72
2023/08/12 06:44:44;;;;;;;9.88;4.28;;;;;;;;;;4987712;28;20190;-72
2023/08/12 06:47:10;;;;;;;5.38;4.30;;;;;;;;;;4988583;28;20747;-71
2023/08/12 06:49:35;;;;;;;7.55;4.38;;;;;;;;;;4986352;28;20242;-71
2023/08/12 06:52:00;;;;;;;6.32;4.53;;;;;;;;;;4987914;28;20341;-72
2023/08/12 06:54:25;;;;;;;5.65;3.90;;;;;;;;;;4983393;28;20411;-72
2023/08/12 06:56:51;;;;;;;5.22;4.72;;;;;;;;;;4986664;28;21081;-72
2023/08/12 06:59:16;;;;;;;7.07;5.13;;;;;;;;;;4986109;28;20191;-72
2023/08/12 07:01:42;;;;;;;5.68;4.75;;;;;;;;;;4987034;28;21091;-71
2023/08/12 07:04:07;;;;;;;5.38;4.68;;;;;;;;;;4984560;28;20191;-71
2023/08/12 07:06:32;;;;;;;7.15;4.88;;;;;;;;;;4983788;28;20202;-71
2023/08/12 07:08:57;;;;;;;6.15;4.97;;;;;;;;;;4988764;28;20191;-72
2023/08/12 07:11:23;;;;;;;7.70;5.80;;;;;;;;;;4987805;28;21021;-69
2023/08/12 07:13:48;;;;;;;6.80;4.80;;;;;;;;;;4988661;28;20214;-71
2023/08/12 07:16:13;;;;;;;8.70;5.80;;;;;;;;;;4987318;28;20629;-71
2023/08/12 07:18:38;;;;;;;7.88;5.65;;;;;;;;;;4987180;28;20179;-70
2023/08/12 07:21:04;;;;;;;8.23;5.45;;;;;;;;;;4982421;28;20286;-71
2023/08/12 07:23:29;;;;;;;11.15;5.70;;;;;;;;;;4986813;28;20179;-70
2023/08/12 07:25:54;;;;;;;6.30;4.90;;;;;;;;;;4982842;28;20283;-70
2023/08/12 07:28:19;;;;;;;6.80;5.45;;;;;;;;;;4986547;28;20275;-70
2023/08/12 07:30:45;;;;;;;6.68;5.50;;;;;;;;;;4986591;28;20252;-71
2023/08/12 07:33:10;;;;;;;7.18;6.00;;;;;;;;;;4987580;28;20187;-70
2023/08/12 07:35:35;;;;;;;7.13;5.80;;;;;;;;;;4985820;28;20192;-71
2023/08/12 07:38:00;;;;;;;7.85;6.65;;;;;;;;;;4984676;28;20275;-71
2023/08/12 07:40:26;;;;;;;7.25;5.43;;;;;;;;;;4987455;28;20188;-70
2023/08/12 07:42:51;;;;;;;4.68;3.88;;;;;;;;;;4987303;28;20194;-70
2023/08/12 07:45:16;;;;;;;11.98;4.63;;;;;;;;;;4983963;28;20183;-70
2023/08/12 07:47:41;;;;;;;4.28;3.50;;;;;;;;;;4986455;28;20183;-71
2023/08/12 07:50:07;;;;;;;4.60;2.70;;;;;;;;;;4983115;28;20186;-70
2023/08/12 07:52:32;;;;;;;2.50;1.92;;;;;;;;;;4991450;28;20216;-70
2023/08/12 07:54:57;;;;;;;1.60;1.50;;;;;;;;;;4988868;28;20676;-70
2023/08/12 07:57:24;;;;;;;2.50;2.15;;;;;;;;;;4987431;28;20722;-70
2023/08/12 07:59:49;;;;;;;2.17;1.90;;;;;;;;;;4986590;28;20178;-70
2023/08/12 08:02:14;;;;;;;1.73;1.60;;;;;;;;;;4985853;28;20202;-69
2023/08/12 08:04:40;;;;;;;1.75;1.23;;;;;;;;;;4981399;28;20199;-69
2023/08/12 08:07:05;;;;;;;2.08;1.38;;;;;;;;;;4986564;28;20206;-69
2023/08/12 08:09:30;;;;;;;1.40;1.30;;;;;;;;;;4988448;28;20187;-68
2023/08/12 08:11:55;;;;;;;1.42;1.23;;;;;;;;;;4983731;28;20210;-69
2023/08/12 08:14:21;;;;;;;1.42;1.08;;;;;;;;;;4984736;28;20313;-69
2023/08/12 08:16:46;;;;;;;1.23;1.10;;;;;;;;;;4987289;28;20210;-69
2023/08/12 08:19:11;;;;;;;1.55;1.13;;;;;;;;;;4987885;28;20243;-69
2023/08/12 08:21:36;;;;;;;1.55;1.05;;;;;;;;;;4988823;28;20237;-69
2023/08/12 08:24:02;;;;;;;4.03;2.00;;;;;;;;;;4988932;28;20653;-68
2023/08/12 08:26:27;;;;;;;3.30;1.08;;;;;;;;;;4964847;28;20633;-69
2023/08/12 08:28:52;;;;;;;4.82;1.88;;;;;;;;;;4974363;28;20811;-70
2023/08/12 08:31:17;;;;;;;5.20;1.70;;;;;;;;;;4977517;28;20616;-69
2023/08/12 08:33:43;;;;;;;3.10;1.73;;;;;;;;;;4980716;28;20275;-69
2023/08/12 08:36:08;;;;;;;5.18;2.08;;;;;;;;;;4973024;28;20179;-69
2023/08/12 08:38:33;;;;;;;6.57;1.80;;;;;;;;;;4975780;28;20310;-69
2023/08/12 08:40:59;;;;;;;6.68;1.80;;;;;;;;;;4986204;22;20227;-68
2023/08/12 08:43:26;;;;;;;4.65;1.77;;;;;;;;;;4977438;28;20195;-68
2023/08/12 08:45:52;;;;;;;4.00;1.73;;;;;;;;;;4973952;28;20180;-66
2023/08/12 08:48:17;;;;;;;5.30;2.15;;;;;;;;;;4973190;28;20385;-66
2023/08/12 08:50:45;;;;;;;4.68;2.25;;;;;;;;;;4973411;28;20593;-67
2023/08/12 08:53:11;;;;;;;5.88;2.28;;;;;;;;;;4971198;28;20183;-66
2023/08/12 08:55:36;;;;;;;4.68;2.03;;;;;;;;;;4973491;28;20941;-66
2023/08/12 08:58:02;;;;;;;3.17;2.03;;;;;;;;;;4974095;28;20265;-67
2023/08/12 09:00:27;;;;;;;3.88;2.00;;;;;;;;;;4973573;28;20187;-67
2023/08/12 09:02:53;;;;;;;7.90;2.17;;;;;;;;;;4972846;28;20231;-67
2023/08/12 09:05:20;;;;;;;2.75;1.52;;;;;;;;;;4972789;28;20258;-66
2023/08/12 09:07:46;;;;;;;5.90;1.85;;;;;;;;;;4972572;28;20317;-67
2023/08/12 09:10:11;;;;;;;3.10;1.80;;;;;;;;;;4975339;28;20195;-67
2023/08/12 09:12:37;;;;;;;5.50;2.05;;;;;;;;;;4973580;28;20581;-67
2023/08/12 09:15:04;;;;;;;5.43;1.67;;;;;;;;;;4962171;28;20849;-66
2023/08/12 09:17:29;;;;;;;5.65;1.70;;;;;;;;;;4972007;28;20242;-66
2023/08/12 09:19:54;;;;;;;2.25;1.30;;;;;;;;;;4953504;28;20825;-66
2023/08/12 09:22:20;;;;;;;3.75;1.85;;;;;;;;;;4971290;28;20206;-67
2023/08/12 09:24:45;;;;;;;2.80;1.63;;;;;;;;;;4971435;28;20187;-67
2023/08/12 09:27:11;;;;;;;3.38;1.90;;;;;;;;;;4955460;28;20214;-66
2023/08/12 09:29:36;;;;;;;4.90;1.83;;;;;;;;;;4971645;28;20256;-66
2023/08/12 09:32:11;;;;;;;3.25;1.52;;;;;;;;;;4973062;28;20349;-66
2023/08/12 09:34:37;;;;;;;3.60;1.52;;;;;;;;;;4971891;28;20211;-66
2023/08/12 09:37:03;;;;;;;2.80;1.52;;;;;;;;;;4955528;28;20194;-66
2023/08/12 09:39:29;;;;;;;3.88;1.40;;;;;;;;;;4972461;28;20176;-67
2023/08/12 09:41:54;;;;;;;3.67;1.30;;;;;;;;;;4972083;28;20323;-66
2023/08/12 09:44:20;;;;;;;4.50;1.58;;;;;;;;;;4973194;28;20208;-67
2023/08/12 09:46:45;;;;;;;5.68;1.77;;;;;;;;;;4973400;28;20191;-67
2023/08/12 09:49:10;;;;;;;4.47;1.63;;;;;;;;;;4972929;28;20297;-67
2023/08/12 09:51:36;;;;;;;3.00;1.30;;;;;;;;;;4971662;28;21912;-67
2023/08/12 09:54:02;;;;;;;4.65;1.95;;;;;;;;;;4974185;28;20187;-66
2023/08/12 09:56:30;;;;;;;6.32;1.95;;;;;;;;;;4969786;28;20740;-66
2023/08/12 09:58:56;;;;;;;2.72;1.20;;;;;;;;;;4951242;28;20278;-67
2023/08/12 10:01:21;;;;;;;4.50;1.63;;;;;;;;;;4969602;28;20213;-67
2023/08/12 10:03:48;;;;;;;6.15;1.98;;;;;;;;;;4971867;28;20193;-67
2023/08/12 10:06:14;;;;;;;4.07;1.50;;;;;;;;;;4970679;28;20278;-66
2023/08/12 10:08:40;;;;;;;4.97;1.65;;;;;;;;;;4963439;28;20626;-67
2023/08/12 10:11:05;;;;;;;2.85;1.52;;;;;;;;;;4969399;28;20221;-67
2023/08/12 10:13:31;;;;;;;4.03;1.80;;;;;;;;;;4969899;28;20206;-68
2023/08/12 10:15:56;;;;;;;5.35;1.33;;;;;;;;;;4987688;28;20190;-68
2023/08/12 10:18:22;;;;;;;3.60;1.00;;;;;;;;;;4986963;28;20199;-67
2023/08/12 10:20:47;;;;;;;4.05;1.13;;;;;;;;;;4985744;28;20195;-67
2023/08/12 10:23:14;;;;;;;2.97;1.25;;;;;;;;;;4970767;28;20670;-67
2023/08/12 10:25:41;;;;;;;4.40;1.25;;;;;;;;;;4987484;28;20249;-67
2023/08/12 10:28:06;;;;;;;5.60;1.50;;;;;;;;;;4986335;28;20685;-68
2023/08/12 10:30:34;;;;;;;5.63;1.48;;;;;;;;;;4986500;28;20219;-67
2023/08/12 10:33:00;;;;;;;5.57;1.48;;;;;;;;;;4984705;28;20189;-67
2023/08/12 10:35:39;;;;;;;2.35;1.42;;;;;;;;;;4988336;28;20739;-67
2023/08/12 10:38:05;;;;;;;3.08;1.45;;;;;;;;;;4988613;28;20695;-67
2023/08/12 10:40:30;;;;;;;1.92;1.20;;;;;;;;;;4975873;28;20183;-66
2023/08/12 10:42:56;;;;;;;1.55;0.95;;;;;;;;;;4971060;28;20198;-66
2023/08/12 10:45:21;;;;;;;5.85;1.55;;;;;;;;;;4972668;28;20192;-66
2023/08/12 10:47:58;;;;;;;3.17;1.02;;;;;;;;;;4950135;28;21346;-66
2023/08/12 10:50:25;;;;;;;4.90;1.98;;;;;;;;;;4951857;28;20187;-67
2023/08/12 10:52:51;;;;;;;5.13;1.17;;;;;;;;;;4970536;28;20991;-67
2023/08/12 10:55:17;;;;;;;3.45;0.98;;;;;;;;;;4963653;28;20186;-67
2023/08/12 10:57:43;;;;;;;3.78;0.95;;;;;;;;;;4969865;28;20190;-66
2023/08/12 11:00:11;;;;;;;7.63;1.23;;;;;;;;;;4969377;28;20252;-67
2023/08/12 11:02:37;;;;;;;2.92;1.00;;;;;;;;;;4949792;28;20213;-67
2023/08/12 11:05:03;;;;;;;2.97;1.20;;;;;;;;;;4973798;28;20187;-67
2023/08/12 11:07:29;;;;;;;4.10;1.25;;;;;;;;;;4970202;28;20286;-67
2023/08/12 11:09:58;;;;;;;4.22;1.65;;;;;;;;;;4970421;28;20570;-66
2023/08/12 11:12:30;;;;;;;4.82;1.35;;;;;;;;;;4983535;28;20223;-67
2023/08/12 11:14:57;;;;;;;3.35;1.10;;;;;;;;;;4971703;28;20180;-67
2023/08/12 11:17:28;;;;;;;2.33;1.00;;;;;;;;;;4968128;28;20184;-67
2023/08/12 11:19:54;;;;;;;6.22;1.42;;;;;;;;;;4970278;28;20761;-67
2023/08/12 11:22:20;;;;;;;5.88;1.67;;;;;;;;;;4968766;28;20460;-67
2023/08/12 11:24:45;;;;;;;6.32;1.73;;;;;;;;;;4969408;28;20183;-68
2023/08/12 11:27:10;;;;;;;5.78;1.63;;;;;;;;;;4968897;28;20195;-67
2023/08/12 11:29:37;;;;;;;9.68;2.33;;;;;;;;;;4969989;28;20229;-67
2023/08/12 11:32:02;;;;;;;4.18;1.60;;;;;;;;;;4969245;28;20297;-68
2023/08/12 11:34:27;;;;;;;6.47;1.60;;;;;;;;;;4953338;28;20180;-67
2023/08/12 11:36:52;;;;;;;2.90;1.10;;;;;;;;;;4972090;28;20218;-67
2023/08/12 11:39:18;;;;;;;5.55;1.90;;;;;;;;;;4951027;28;20194;-67
2023/08/12 11:41:44;;;;;;;4.05;1.20;;;;;;;;;;4951840;28;20227;-67
2023/08/12 11:44:15;;;;;;;6.43;1.45;;;;;;;;;;4974323;28;20241;-67
2023/08/12 11:46:40;;;;;;;3.92;1.20;;;;;;;;;;4968633;28;20237;-67
2023/08/12 11:49:05;;;;;;;4.33;1.37;;;;;;;;;;4970095;28;20473;-67
2023/08/12 11:51:31;;;;;;;6.83;1.43;;;;;;;;;;4969737;28;20472;-67
2023/08/12 11:53:56;;;;;;;5.45;1.25;;;;;;;;;;4970128;28;20427;-67
2023/08/12 11:56:21;;;;;;;3.72;1.38;;;;;;;;;;4968912;28;20190;-67
2023/08/12 11:58:55;;;;;;;5.88;1.25;;;;;;;;;;4952808;28;20187;-67
2023/08/12 12:01:22;;;;;;;2.75;1.20;;;;;;;;;;4951699;28;20274;-67
2023/08/12 12:03:51;;;;;;;6.55;1.30;;;;;;;;;;4953167;28;20542;-68
2023/08/12 12:06:17;;;;;;;5.38;1.17;;;;;;;;;;4974046;28;20187;-66
2023/08/12 12:08:44;;;;;;;2.88;1.20;;;;;;;;;;4970273;28;21962;-67
2023/08/12 12:11:09;;;;;;;5.00;1.30;;;;;;;;;;4968680;28;20648;-67
2023/08/12 12:13:35;;;;;;;3.90;1.10;;;;;;;;;;4971491;28;20187;-67
2023/08/12 12:16:00;;;;;;;6.50;1.63;;;;;;;;;;4969831;28;20844;-67
2023/08/12 12:18:26;;;;;;;1.95;1.38;;;;;;;;;;4967673;28;20191;-68
2023/08/12 12:20:57;;;;;;;5.18;1.30;;;;;;;;;;4971513;28;20594;-67
2023/08/12 12:23:27;;;;;;;3.30;1.00;;;;;;;;;;4969220;28;20195;-67
2023/08/12 12:25:56;;;;;;;3.25;1.30;;;;;;;;;;4970184;28;20813;-67
2023/08/12 12:28:22;;;;;;;2.72;1.38;;;;;;;;;;4968291;28;20187;-68
2023/08/12 12:30:47;;;;;;;4.33;1.43;;;;;;;;;;4969941;28;20222;-66
2023/08/12 12:33:12;;;;;;;3.47;1.30;;;;;;;;;;4969966;28;20439;-66
2023/08/12 12:35:37;;;;;;;3.75;1.50;;;;;;;;;;4969612;28;20980;-67
2023/08/12 12:38:02;;;;;;;5.70;1.80;;;;;;;;;;4972423;28;20829;-66
2023/08/12 12:40:28;;;;;;;7.20;1.80;;;;;;;;;;4973333;28;20510;-67
2023/08/12 12:42:53;;;;;;;4.97;1.63;;;;;;;;;;4976087;28;20603;-67
2023/08/12 12:45:18;;;;;;;5.00;1.83;;;;;;;;;;4973000;28;20846;-67
2023/08/12 12:47:43;;;;;;;8.43;1.93;;;;;;;;;;4972532;28;20957;-67
2023/08/12 12:50:09;;;;;;;4.27;1.37;;;;;;;;;;4972807;28;21274;-68
2023/08/12 12:52:34;;;;;;;5.28;1.63;;;;;;;;;;4954374;28;21202;-66
2023/08/12 12:55:00;;;;;;;4.15;1.10;;;;;;;;;;4972529;28;20223;-66
2023/08/12 12:57:25;;;;;;;9.13;1.90;;;;;;;;;;4971590;28;20195;-66
2023/08/12 12:59:50;;;;;;;6.30;1.42;;;;;;;;;;4976965;28;20275;-68
2023/08/12 13:02:16;;;;;;;6.33;2.00;;;;;;;;;;4981988;28;20222;-68
2023/08/12 13:04:41;;;;;;;4.37;1.60;;;;;;;;;;4975174;28;21274;-68
2023/08/12 13:07:06;;;;;;;7.40;1.92;;;;;;;;;;4973103;28;21240;-67
2023/08/12 13:09:31;;;;;;;6.07;1.57;;;;;;;;;;4972137;28;20623;-68
2023/08/12 13:11:58;;;;;;;4.55;1.23;;;;;;;;;;4969302;28;20469;-67
2023/08/12 13:14:23;;;;;;;7.72;2.05;;;;;;;;;;4973770;28;22489;-67
2023/08/12 13:16:48;;;;;;;5.88;1.92;;;;;;;;;;4970554;28;20183;-68
2023/08/12 13:19:14;;;;;;;7.90;1.53;;;;;;;;;;4971680;28;20282;-67
2023/08/12 13:21:39;;;;;;;5.53;1.70;;;;;;;;;;4954209;28;20487;-67
2023/08/12 13:24:04;;;;;;;6.03;1.40;;;;;;;;;;4956351;28;20191;-68
2023/08/12 13:26:30;;;;;;;6.07;1.80;;;;;;;;;;4970306;28;20623;-68
2023/08/12 13:28:55;;;;;;;3.83;1.70;;;;;;;;;;4971768;28;20721;-67
2023/08/12 13:31:20;;;;;;;8.90;2.05;;;;;;;;;;4971463;28;20211;-67
2023/08/12 13:33:45;;;;;;;10.48;1.58;;;;;;;;;;4973189;28;20183;-67
2023/08/12 13:36:11;;;;;;;4.80;1.75;;;;;;;;;;4970729;28;20243;-69
2023/08/12 13:38:36;;;;;;;6.35;1.98;;;;;;;;;;4972653;28;20187;-68
2023/08/12 13:41:02;;;;;;;8.23;1.80;;;;;;;;;;4970056;28;20927;-66
2023/08/12 13:43:27;;;;;;;4.27;1.33;;;;;;;;;;4974989;28;20912;-68
2023/08/12 13:45:53;;;;;;;5.40;1.92;;;;;;;;;;4970902;28;20425;-67
2023/08/12 13:48:18;;;;;;;9.27;1.67;;;;;;;;;;4970279;28;20219;-68
2023/08/12 13:50:43;;;;;;;8.43;1.65;;;;;;;;;;4972438;28;20197;-67
2023/08/12 13:53:08;;;;;;;4.88;1.83;;;;;;;;;;4969825;28;20188;-67
2023/08/12 13:55:33;;;;;;;6.85;1.40;;;;;;;;;;4970281;28;20349;-68
2023/08/12 13:57:59;;;;;;;5.10;1.40;;;;;;;;;;4969095;28;20199;-67
2023/08/12 14:00:24;;;;;;;6.22;1.42;;;;;;;;;;4971911;28;20800;-67
2023/08/12 14:02:49;;;;;;;6.03;1.92;;;;;;;;;;4973023;28;20211;-68
2023/08/12 14:05:15;;;;;;;5.78;1.90;;;;;;;;;;4976031;28;20211;-67
2023/08/12 14:07:40;;;;;;;7.15;1.63;;;;;;;;;;4970686;28;20310;-68
2023/08/12 14:10:06;;;;;;;5.35;1.40;;;;;;;;;;4969637;28;20215;-68
2023/08/12 14:12:32;;;;;;;6.20;2.10;;;;;;;;;;4972129;28;20226;-68
2023/08/12 14:14:57;;;;;;;6.55;1.75;;;;;;;;;;4973995;28;20273;-67
2023/08/12 14:17:23;;;;;;;6.78;1.50;;;;;;;;;;4970080;28;20222;-67
2023/08/12 14:19:49;;;;;;;3.45;1.23;;;;;;;;;;4972658;28;20267;-67
2023/08/12 14:22:14;;;;;;;6.63;1.48;;;;;;;;;;4975971;28;20692;-67
2023/08/12 14:24:39;;;;;;;7.00;1.70;;;;;;;;;;4970708;28;20314;-67
2023/08/12 14:27:04;;;;;;;3.67;1.23;;;;;;;;;;4969256;28;20425;-67